createdAt,value
2018-12-08T00:00:29.411Z,6.60
2018-12-08T00:02:58.665Z,6.60
2018-12-08T00:05:27.000Z,6.60
2018-12-08T00:07:55.263Z,6.70
2018-12-08T00:10:23.661Z,6.70
2018-12-08T00:12:51.891Z,6.70
2018-12-08T00:15:20.199Z,6.80
2018-12-08T00:17:48.530Z,6.80
2018-12-08T00:20:16.827Z,6.90
2018-12-08T00:22:45.171Z,6.80
2018-12-08T00:25:13.433Z,6.90
2018-12-08T00:27:41.875Z,6.90
2018-12-08T00:33:26.150Z,7.00
2018-12-08T00:35:54.390Z,7.00
2018-12-08T00:38:23.768Z,6.90
2018-12-08T00:40:52.057Z,6.90
2018-12-08T00:43:20.285Z,6.80
2018-12-08T00:45:48.533Z,6.80
2018-12-08T00:48:16.856Z,6.80
2018-12-08T00:50:45.083Z,6.70
2018-12-08T00:53:13.349Z,6.70
2018-12-08T00:55:41.719Z,6.60
2018-12-08T00:58:09.943Z,6.60
2018-12-08T01:00:38.349Z,6.60
2018-12-08T01:03:06.612Z,6.60
2018-12-08T01:05:35.091Z,6.50
2018-12-08T01:08:03.379Z,6.50
2018-12-08T01:10:31.645Z,6.50
2018-12-08T01:12:59.930Z,6.50
2018-12-08T01:15:28.294Z,6.50
2018-12-08T01:17:56.949Z,6.50
2018-12-08T01:20:25.156Z,6.50
2018-12-08T01:22:53.390Z,6.40
2018-12-08T01:25:21.785Z,6.30
2018-12-08T01:27:50.015Z,6.30
2018-12-08T01:30:18.368Z,6.30
2018-12-08T01:32:46.572Z,6.30
2018-12-08T01:35:16.296Z,6.40
2018-12-08T01:37:44.517Z,6.40
2018-12-08T01:40:12.833Z,6.40
2018-12-08T01:42:41.083Z,6.30
2018-12-08T01:45:09.422Z,6.40
2018-12-08T01:47:37.750Z,6.40
2018-12-08T01:50:06.075Z,6.40
2018-12-08T01:52:34.417Z,6.40
2018-12-08T01:55:02.728Z,6.40
2018-12-08T01:57:31.481Z,6.40
2018-12-08T01:59:59.690Z,6.40
2018-12-08T02:02:27.964Z,6.40
2018-12-08T02:04:56.364Z,6.50
2018-12-08T02:07:24.646Z,6.50
2018-12-08T02:09:54.003Z,6.50
2018-12-08T02:12:22.297Z,6.60
2018-12-08T02:14:50.542Z,6.60
2018-12-08T02:17:18.854Z,6.60
2018-12-08T02:19:47.148Z,6.60
2018-12-08T02:22:15.522Z,6.60
2018-12-08T02:24:43.882Z,6.60
2018-12-08T02:27:12.140Z,6.60
2018-12-08T02:29:40.695Z,6.60
2018-12-08T02:32:08.986Z,6.60
2018-12-08T02:34:37.288Z,6.60
2018-12-08T02:37:05.644Z,6.60
2018-12-08T02:39:33.919Z,6.60
2018-12-08T02:42:02.454Z,6.60
2018-12-08T02:44:30.699Z,6.60
2018-12-08T02:46:59.969Z,6.50
2018-12-08T02:49:28.265Z,6.50
2018-12-08T02:51:58.500Z,6.60
2018-12-08T02:54:26.950Z,6.60
2018-12-08T02:56:55.236Z,6.60
2018-12-08T02:59:24.421Z,6.60
2018-12-08T03:01:52.697Z,6.60
2018-12-08T03:04:20.960Z,6.60
2018-12-08T03:06:49.272Z,6.60
2018-12-08T03:09:17.586Z,6.70
2018-12-08T03:11:45.846Z,6.70
2018-12-08T03:14:14.103Z,6.70
2018-12-08T03:16:42.335Z,6.70
2018-12-08T03:19:10.629Z,6.70
2018-12-08T03:21:38.886Z,6.80
2018-12-08T03:24:07.188Z,6.80
2018-12-08T03:26:35.491Z,6.80
2018-12-08T03:29:04.720Z,6.90
2018-12-08T03:31:32.993Z,7.00
2018-12-08T03:34:01.217Z,6.90
2018-12-08T03:36:29.483Z,7.00
2018-12-08T03:38:57.722Z,7.00
2018-12-08T03:41:25.967Z,7.00
2018-12-08T03:43:55.252Z,7.10
2018-12-08T03:46:23.488Z,7.10
2018-12-08T03:48:51.718Z,7.10
2018-12-08T03:51:20.123Z,7.10
2018-12-08T03:53:48.397Z,7.10
2018-12-08T03:56:16.730Z,7.10
2018-12-08T03:58:45.036Z,7.10
2018-12-08T04:01:13.312Z,7.10
2018-12-08T04:03:41.593Z,7.20
2018-12-08T04:06:09.858Z,7.20
2018-12-08T04:08:38.196Z,7.10
2018-12-08T04:11:06.577Z,7.20
2018-12-08T04:13:34.979Z,7.20
2018-12-08T04:16:03.321Z,7.20
2018-12-08T04:18:31.585Z,7.20
2018-12-08T04:20:59.845Z,7.20
2018-12-08T04:23:28.210Z,7.20
2018-12-08T04:25:56.638Z,7.30
2018-12-08T04:28:24.917Z,7.30
2018-12-08T04:30:53.126Z,7.20
2018-12-08T04:33:21.482Z,7.30
2018-12-08T04:35:49.862Z,7.30
2018-12-08T04:38:18.496Z,7.30
2018-12-08T04:40:46.748Z,7.40
2018-12-08T04:43:15.004Z,7.40
2018-12-08T04:45:43.293Z,7.50
2018-12-08T04:48:11.763Z,7.50
2018-12-08T04:50:40.063Z,7.50
2018-12-08T04:53:08.305Z,7.50
2018-12-08T04:55:36.654Z,7.50
2018-12-08T04:58:04.892Z,7.60
2018-12-08T05:00:33.180Z,7.60
2018-12-08T05:03:01.558Z,7.70
2018-12-08T05:05:29.795Z,7.70
2018-12-08T05:07:58.041Z,7.80
2018-12-08T05:10:26.310Z,7.80
2018-12-08T05:12:54.581Z,7.80
2018-12-08T05:15:23.387Z,7.90
2018-12-08T05:17:51.703Z,7.90
2018-12-08T05:20:19.967Z,7.90
2018-12-08T05:22:48.237Z,7.90
2018-12-08T05:25:17.312Z,8.00
2018-12-08T05:27:45.581Z,8.00
2018-12-08T05:30:13.814Z,8.00
2018-12-08T05:32:42.323Z,8.00
2018-12-08T05:35:10.565Z,8.00
2018-12-08T05:37:38.859Z,8.00
2018-12-08T05:40:07.136Z,8.00
2018-12-08T05:42:35.406Z,8.00
2018-12-08T05:45:03.952Z,8.10
2018-12-08T05:47:32.368Z,8.10
2018-12-08T05:50:00.771Z,8.20
2018-12-08T05:52:29.515Z,8.20
2018-12-08T05:54:58.629Z,8.20
2018-12-08T05:57:26.855Z,8.20
2018-12-08T05:59:55.191Z,8.20
2018-12-08T06:02:23.582Z,8.10
2018-12-08T06:04:52.245Z,8.00
2018-12-08T06:07:20.469Z,8.00
2018-12-08T06:09:48.695Z,8.00
2018-12-08T06:12:16.956Z,7.90
2018-12-08T06:14:45.183Z,7.90
2018-12-08T06:17:13.513Z,8.00
2018-12-08T06:19:41.915Z,7.90
2018-12-08T06:22:10.712Z,8.00
2018-12-08T06:24:38.982Z,7.90
2018-12-08T06:27:07.439Z,8.00
2018-12-08T06:29:35.723Z,8.00
2018-12-08T06:32:04.072Z,8.00
2018-12-08T06:34:32.383Z,8.10
2018-12-08T06:37:00.716Z,8.10
2018-12-08T06:39:28.950Z,8.10
2018-12-08T06:41:57.208Z,8.10
2018-12-08T06:44:25.456Z,8.10
2018-12-08T06:46:53.832Z,8.10
2018-12-08T06:49:22.102Z,8.00
2018-12-08T06:51:50.388Z,8.00
2018-12-08T06:54:18.690Z,7.90
2018-12-08T06:56:46.939Z,7.90
2018-12-08T06:59:15.268Z,7.90
2018-12-08T07:01:43.520Z,7.80
2018-12-08T07:04:11.802Z,7.80
2018-12-08T07:06:40.079Z,7.80
2018-12-08T07:09:08.327Z,7.70
2018-12-08T07:11:36.620Z,7.70
2018-12-08T07:14:04.907Z,7.70
2018-12-08T07:16:33.334Z,7.70
2018-12-08T07:19:01.559Z,7.70
2018-12-08T07:21:29.812Z,7.70
2018-12-08T07:23:58.048Z,7.60
2018-12-08T07:26:26.280Z,7.60
2018-12-08T07:28:54.619Z,7.70
2018-12-08T07:31:22.876Z,7.70
2018-12-08T07:33:51.290Z,7.70
2018-12-08T07:36:19.556Z,7.70
2018-12-08T07:38:47.860Z,7.70
2018-12-08T07:41:16.177Z,7.60
2018-12-08T07:43:44.426Z,7.60
2018-12-08T07:46:12.756Z,7.60
2018-12-08T07:48:41.035Z,7.60
2018-12-08T07:51:09.363Z,7.60
2018-12-08T07:53:37.609Z,7.60
2018-12-08T07:56:05.855Z,7.60
2018-12-08T07:58:34.137Z,7.60
2018-12-08T08:01:02.447Z,7.60
2018-12-08T08:03:30.788Z,7.60
2018-12-08T08:05:59.064Z,7.60
2018-12-08T08:08:27.367Z,7.70
2018-12-08T08:10:55.738Z,7.70
2018-12-08T08:13:24.158Z,7.80
2018-12-08T08:15:52.469Z,7.80
2018-12-08T08:18:20.991Z,7.80
2018-12-08T08:20:49.298Z,7.80
2018-12-08T08:23:17.678Z,7.90
2018-12-08T08:25:46.020Z,7.80
2018-12-08T08:28:14.229Z,7.80
2018-12-08T08:30:42.525Z,7.80
2018-12-08T08:33:10.777Z,7.80
2018-12-08T08:35:39.142Z,7.80
2018-12-08T08:38:07.760Z,7.80
2018-12-08T08:40:36.003Z,7.80
2018-12-08T08:43:04.260Z,7.90
2018-12-08T08:45:32.636Z,7.90
2018-12-08T08:48:01.024Z,7.90
2018-12-08T08:50:29.277Z,8.00
2018-12-08T08:52:57.580Z,8.00
2018-12-08T08:55:26.355Z,7.90
2018-12-08T08:57:54.768Z,8.00
2018-12-08T09:00:23.224Z,8.00
2018-12-08T09:02:51.449Z,8.00
2018-12-08T09:05:19.692Z,8.00
2018-12-08T09:07:48.337Z,7.90
2018-12-08T09:10:16.619Z,7.90
2018-12-08T09:12:44.856Z,8.00
2018-12-08T09:15:13.233Z,8.00
2018-12-08T09:17:41.474Z,8.00
2018-12-08T09:20:09.741Z,8.00
2018-12-08T09:22:38.022Z,8.10
2018-12-08T09:25:07.215Z,8.10
2018-12-08T09:27:35.512Z,8.10
2018-12-08T09:30:05.037Z,8.10
2018-12-08T09:32:33.282Z,8.10
2018-12-08T09:35:01.561Z,8.20
2018-12-08T09:37:29.909Z,8.20
2018-12-08T09:39:58.262Z,8.30
2018-12-08T09:42:26.611Z,8.30
2018-12-08T09:44:54.847Z,8.40
2018-12-08T09:47:23.119Z,8.40
2018-12-08T09:49:51.515Z,8.40
2018-12-08T09:52:19.830Z,8.40
2018-12-08T09:54:48.174Z,8.50
2018-12-08T09:57:16.417Z,8.50
2018-12-08T09:59:44.677Z,8.50
2018-12-08T10:02:12.996Z,8.50
2018-12-08T10:04:41.257Z,8.50
2018-12-08T10:07:09.541Z,8.50
2018-12-08T10:09:37.973Z,8.50
2018-12-08T10:12:06.224Z,8.40
2018-12-08T10:14:34.475Z,8.50
2018-12-08T10:17:02.773Z,8.50
2018-12-08T10:19:30.993Z,8.50
2018-12-08T10:21:59.280Z,8.60
2018-12-08T10:24:27.540Z,8.60
2018-12-08T10:26:55.825Z,8.60
2018-12-08T10:29:25.156Z,8.70
2018-12-08T10:31:53.402Z,8.70
2018-12-08T10:34:21.660Z,8.80
2018-12-08T10:36:49.936Z,8.80
2018-12-08T10:39:18.246Z,8.80
2018-12-08T10:41:46.556Z,8.80
2018-12-08T10:44:14.758Z,8.90
2018-12-08T10:46:43.063Z,8.90
2018-12-08T10:49:11.488Z,8.90
2018-12-08T10:51:39.809Z,8.90
2018-12-08T10:54:08.029Z,9.00
2018-12-08T10:56:36.620Z,9.00
2018-12-08T10:59:04.851Z,8.90
2018-12-08T11:01:35.052Z,9.00
2018-12-08T11:04:03.597Z,9.00
2018-12-08T11:06:31.873Z,9.10
2018-12-08T11:09:00.127Z,9.00
2018-12-08T11:11:28.392Z,9.00
2018-12-08T11:13:56.756Z,8.90
2018-12-08T11:16:24.987Z,9.00
2018-12-08T11:18:53.304Z,8.90
2018-12-08T11:21:21.634Z,8.90
2018-12-08T11:23:50.061Z,9.00
2018-12-08T11:26:18.326Z,8.90
2018-12-08T11:28:46.546Z,9.00
2018-12-08T11:31:14.835Z,9.10
2018-12-08T11:33:43.192Z,9.10
2018-12-08T11:36:11.496Z,9.10
2018-12-08T11:38:39.759Z,9.20
2018-12-08T11:41:08.351Z,9.30
2018-12-08T11:43:36.629Z,9.40
2018-12-08T11:46:04.951Z,9.50
2018-12-08T11:48:33.223Z,9.50
2018-12-08T11:51:02.529Z,9.40
2018-12-08T11:53:30.765Z,9.50
2018-12-08T11:55:59.033Z,9.60
2018-12-08T11:58:27.309Z,9.60
2018-12-08T12:00:55.604Z,9.80
2018-12-08T12:03:23.880Z,9.80
2018-12-08T12:05:52.152Z,9.80
2018-12-08T12:08:20.411Z,9.70
2018-12-08T12:10:48.733Z,9.80
2018-12-08T12:13:16.979Z,9.80
2018-12-08T12:15:45.196Z,9.90
2018-12-08T12:18:13.481Z,9.90
2018-12-08T12:20:41.721Z,10.00
2018-12-08T12:23:09.974Z,9.90
2018-12-08T12:25:38.368Z,9.90
2018-12-08T12:28:06.932Z,9.90
2018-12-08T12:30:35.182Z,9.90
2018-12-08T12:33:03.491Z,9.90
2018-12-08T12:35:32.209Z,9.90
2018-12-08T12:38:01.420Z,9.90
2018-12-08T12:40:29.661Z,9.80
2018-12-08T12:42:57.915Z,9.80
2018-12-08T12:45:26.158Z,9.80
2018-12-08T12:47:55.428Z,9.70
2018-12-08T12:50:23.690Z,9.70
2018-12-08T12:52:52.201Z,9.70
2018-12-08T12:55:20.448Z,9.60
2018-12-08T12:57:48.714Z,9.60
2018-12-08T13:00:17.025Z,9.60
2018-12-08T13:02:45.579Z,9.50
2018-12-08T13:05:13.796Z,9.50
2018-12-08T13:07:42.053Z,9.50
2018-12-08T13:10:10.406Z,9.40
2018-12-08T13:12:38.757Z,9.30
2018-12-08T13:15:07.048Z,9.30
2018-12-08T13:17:35.328Z,9.30
2018-12-08T13:20:04.210Z,9.40
2018-12-08T13:22:32.477Z,9.40
2018-12-08T13:25:20.737Z,9.40
2018-12-08T13:27:49.075Z,9.40
2018-12-08T13:30:17.341Z,9.40
2018-12-08T13:32:45.699Z,9.50
2018-12-08T13:38:13.774Z,9.50
2018-12-08T13:40:42.069Z,9.50
2018-12-08T13:43:10.885Z,9.60
2018-12-08T13:45:39.151Z,9.60
2018-12-08T13:48:07.382Z,9.60
2018-12-08T13:50:36.051Z,9.70
2018-12-08T13:53:04.318Z,9.60
2018-12-08T13:55:32.539Z,9.70
2018-12-08T13:58:00.809Z,9.70
2018-12-08T14:00:29.107Z,9.70
2018-12-08T14:02:57.371Z,9.80
2018-12-08T14:05:25.654Z,9.80
2018-12-08T14:07:53.950Z,9.80
2018-12-08T14:10:22.208Z,9.80
2018-12-08T14:12:50.455Z,9.90
2018-12-08T14:15:18.780Z,9.90
2018-12-08T14:17:47.030Z,9.90
2018-12-08T14:20:25.362Z,9.90
2018-12-08T14:22:53.658Z,9.90
2018-12-08T14:25:21.994Z,9.90
2018-12-08T14:27:50.426Z,9.90
2018-12-08T14:30:18.660Z,9.90
2018-12-08T14:32:46.917Z,9.90
2018-12-08T14:35:15.211Z,9.90
2018-12-08T14:37:43.471Z,9.90
2018-12-08T14:40:11.814Z,9.90
2018-12-08T14:42:40.120Z,9.90
2018-12-08T14:45:08.623Z,9.80
2018-12-08T14:47:36.913Z,9.80
2018-12-08T14:50:05.663Z,9.80
2018-12-08T14:52:33.926Z,9.80
2018-12-08T14:55:04.290Z,9.80
2018-12-08T14:57:33.569Z,9.80
2018-12-08T15:00:01.767Z,9.80
2018-12-08T15:02:30.243Z,9.80
2018-12-08T15:04:58.446Z,9.70
2018-12-08T15:07:26.703Z,9.70
2018-12-08T15:09:55.013Z,9.70
2018-12-08T15:12:23.300Z,9.70
2018-12-08T15:14:51.682Z,9.80
2018-12-08T15:17:20.026Z,9.70
2018-12-08T15:19:48.410Z,9.80
2018-12-08T15:22:16.702Z,9.80
2018-12-08T15:24:45.029Z,9.80
2018-12-08T15:27:13.359Z,9.90
2018-12-08T15:29:41.596Z,9.90
2018-12-08T15:32:09.895Z,9.80
2018-12-08T15:34:38.136Z,9.90
2018-12-08T15:37:06.449Z,9.90
2018-12-08T15:39:34.682Z,9.90
2018-12-08T15:42:02.920Z,9.90
2018-12-08T15:44:31.160Z,9.80
2018-12-08T15:47:00.025Z,9.80
2018-12-08T15:49:28.376Z,9.80
2018-12-08T15:51:56.721Z,9.90
2018-12-08T15:54:24.952Z,9.90
2018-12-08T15:56:53.282Z,9.90
2018-12-08T15:59:21.536Z,9.90
2018-12-08T16:01:49.917Z,9.90
2018-12-08T16:04:18.252Z,9.90
2018-12-08T16:06:46.529Z,9.90
2018-12-08T16:09:14.795Z,9.90
2018-12-08T16:11:43.034Z,9.90
2018-12-08T16:14:11.248Z,9.80
2018-12-08T16:16:39.551Z,9.80
2018-12-08T16:19:07.822Z,9.80
2018-12-08T16:21:36.084Z,9.80
2018-12-08T16:24:05.286Z,9.80
2018-12-08T16:26:33.563Z,9.80
2018-12-08T16:29:01.862Z,9.80
2018-12-08T16:31:30.113Z,9.80
2018-12-08T16:33:58.434Z,9.80
2018-12-08T16:36:26.705Z,9.80
2018-12-08T16:38:54.989Z,9.80
2018-12-08T16:41:23.374Z,9.80
2018-12-08T16:43:52.112Z,9.80
2018-12-08T16:46:20.398Z,9.80
2018-12-08T16:48:49.622Z,9.80
2018-12-08T16:51:17.886Z,9.90
2018-12-08T16:53:46.252Z,9.90
2018-12-08T16:56:16.197Z,9.90
2018-12-08T16:58:44.727Z,10.00
2018-12-08T17:01:13.054Z,9.90
2018-12-08T17:03:41.413Z,10.00
2018-12-08T17:06:09.778Z,10.00
2018-12-08T17:08:38.084Z,10.00
2018-12-08T17:11:06.331Z,10.00
2018-12-08T17:13:34.648Z,10.10
2018-12-08T17:16:02.980Z,10.10
2018-12-08T17:18:31.441Z,10.00
2018-12-08T17:20:59.822Z,10.00
2018-12-08T17:23:28.033Z,10.00
2018-12-08T17:25:56.396Z,10.00
2018-12-08T17:28:24.720Z,10.00
2018-12-08T17:30:52.981Z,10.00
2018-12-08T17:33:21.330Z,10.00
2018-12-08T17:35:49.630Z,10.00
2018-12-08T17:38:17.900Z,9.90
2018-12-08T17:40:46.208Z,10.00
2018-12-08T17:43:14.504Z,9.90
2018-12-08T17:45:43.097Z,9.90
2018-12-08T17:48:11.458Z,9.90
2018-12-08T17:50:39.747Z,9.90
2018-12-08T17:53:08.002Z,9.90
2018-12-08T17:55:36.344Z,9.90
2018-12-08T17:58:04.660Z,9.90
2018-12-08T18:00:33.003Z,9.80
2018-12-08T18:03:01.342Z,9.80
2018-12-08T18:05:29.621Z,9.70
2018-12-08T18:07:57.877Z,9.70
2018-12-08T18:10:26.598Z,9.70
2018-12-08T18:12:54.876Z,9.70
2018-12-08T18:15:23.263Z,9.60
2018-12-08T18:17:51.512Z,9.50
2018-12-08T18:20:19.805Z,9.50
2018-12-08T18:22:48.488Z,9.60
2018-12-08T18:25:16.879Z,9.60
2018-12-08T18:27:45.153Z,9.60
2018-12-08T18:30:13.479Z,9.60
2018-12-08T18:32:41.715Z,9.60
2018-12-08T18:35:10.048Z,9.60
2018-12-08T18:37:38.300Z,9.60
2018-12-08T18:40:06.585Z,9.60
2018-12-08T18:42:34.835Z,9.60
2018-12-08T18:45:03.272Z,9.60
2018-12-08T18:47:31.572Z,9.70
2018-12-08T18:49:59.832Z,9.70
2018-12-08T18:52:28.099Z,9.60
2018-12-08T18:54:56.448Z,9.70
2018-12-08T18:57:24.758Z,9.70
2018-12-08T18:59:53.084Z,9.70
2018-12-08T19:02:21.432Z,9.60
2018-12-08T19:04:49.716Z,9.60
2018-12-08T19:07:18.130Z,9.60
2018-12-08T19:09:46.477Z,9.60
2018-12-08T19:12:14.951Z,9.60
2018-12-08T19:14:43.425Z,9.50
2018-12-08T19:17:11.667Z,9.50
2018-12-08T19:19:39.912Z,9.50
2018-12-08T19:22:09.770Z,9.50
2018-12-08T19:24:38.306Z,9.60
2018-12-08T19:27:06.532Z,9.50
2018-12-08T19:29:34.811Z,9.60
2018-12-08T19:32:03.093Z,9.60
2018-12-08T19:34:31.451Z,9.60
2018-12-08T19:36:59.702Z,9.60
2018-12-08T19:39:27.952Z,9.60
2018-12-08T19:41:56.376Z,9.60
2018-12-08T19:44:24.591Z,9.60
2018-12-08T19:46:53.103Z,9.60
2018-12-08T19:49:21.467Z,9.70
2018-12-08T19:51:49.696Z,9.70
2018-12-08T19:54:17.952Z,9.70
2018-12-08T19:56:46.228Z,9.70
2018-12-08T19:59:14.450Z,9.70
2018-12-08T20:01:43.055Z,9.80
2018-12-08T20:04:11.521Z,9.70
2018-12-08T20:06:40.234Z,9.70
2018-12-08T20:09:08.651Z,9.70
2018-12-08T20:11:37.444Z,9.70
2018-12-08T20:14:05.659Z,9.70
2018-12-08T20:16:33.927Z,9.80
2018-12-08T20:19:02.396Z,9.70
2018-12-08T20:21:30.666Z,9.70
2018-12-08T20:23:59.027Z,9.70
2018-12-08T20:26:27.851Z,9.70
2018-12-08T20:28:56.121Z,9.70
2018-12-08T20:31:24.361Z,9.60
2018-12-08T20:33:52.839Z,9.50
2018-12-08T20:36:21.064Z,9.50
2018-12-08T20:38:49.284Z,9.40
2018-12-08T20:41:17.639Z,9.40
2018-12-08T20:43:45.995Z,9.40
2018-12-08T20:46:14.307Z,9.40
2018-12-08T20:48:42.988Z,9.30
2018-12-08T20:51:11.400Z,9.40
2018-12-08T20:53:39.680Z,9.40
2018-12-08T20:56:08.017Z,9.40
2018-12-08T20:58:36.283Z,9.40
2018-12-08T21:01:04.545Z,9.40
2018-12-08T21:03:32.831Z,9.40
2018-12-08T21:06:01.058Z,9.40
2018-12-08T21:08:29.543Z,9.40
2018-12-08T21:10:57.844Z,9.50
2018-12-08T21:13:26.118Z,9.50
2018-12-08T21:15:54.365Z,9.50
2018-12-08T21:18:22.685Z,9.50
2018-12-08T21:20:51.303Z,9.40
2018-12-08T21:23:19.536Z,9.40
2018-12-08T21:25:47.780Z,9.50
2018-12-08T21:28:16.122Z,9.40
2018-12-08T21:30:44.335Z,9.50
2018-12-08T21:33:12.997Z,9.50
2018-12-08T21:35:41.235Z,9.50
2018-12-08T21:38:09.468Z,9.60
2018-12-08T21:40:37.739Z,9.60
2018-12-08T21:43:06.039Z,9.70
2018-12-08T21:45:34.357Z,9.70
2018-12-08T21:48:02.625Z,9.80
2018-12-08T21:50:30.973Z,9.90
2018-12-08T21:52:59.229Z,9.90
2018-12-08T21:55:27.483Z,9.90
2018-12-08T21:57:55.788Z,9.90
2018-12-08T22:00:24.075Z,9.90
2018-12-08T22:02:53.400Z,9.90
2018-12-08T22:05:21.637Z,10.00
2018-12-08T22:07:49.922Z,10.10
2018-12-08T22:10:18.136Z,10.10
2018-12-08T22:12:46.388Z,10.20
2018-12-08T22:15:14.691Z,10.20
2018-12-08T22:17:43.468Z,10.20
2018-12-08T22:20:11.951Z,10.30
2018-12-08T22:22:40.203Z,10.20
2018-12-08T22:25:08.499Z,10.20
2018-12-08T22:27:37.930Z,10.30
2018-12-08T22:30:06.335Z,10.30
2018-12-08T22:32:34.734Z,10.30
2018-12-08T22:35:03.248Z,10.30
2018-12-08T22:37:31.568Z,10.30
2018-12-08T22:39:59.983Z,10.30
2018-12-08T22:42:28.298Z,10.20
2018-12-08T22:44:56.545Z,10.20
2018-12-08T22:47:24.878Z,10.20
2018-12-08T22:49:53.237Z,10.20
2018-12-08T22:52:21.643Z,10.30
2018-12-08T22:54:49.875Z,10.30
2018-12-08T22:57:18.251Z,10.30
2018-12-08T22:59:46.533Z,10.20
2018-12-08T23:02:14.777Z,10.20
2018-12-08T23:04:43.070Z,10.20
2018-12-08T23:07:11.857Z,10.20
2018-12-08T23:09:40.127Z,10.20
2018-12-08T23:12:08.841Z,10.20
2018-12-08T23:14:37.084Z,10.20
2018-12-08T23:17:05.379Z,10.30
2018-12-08T23:19:33.756Z,10.30
2018-12-08T23:22:02.012Z,10.20
2018-12-08T23:24:30.274Z,10.10
2018-12-08T23:26:58.630Z,9.90
2018-12-08T23:29:26.852Z,9.70
2018-12-08T23:31:55.136Z,9.60
2018-12-08T23:34:23.457Z,9.50
2018-12-08T23:36:51.685Z,9.40
2018-12-08T23:39:19.912Z,9.40
2018-12-08T23:41:48.261Z,9.40
2018-12-08T23:44:16.561Z,9.30
2018-12-08T23:46:44.805Z,9.40
2018-12-08T23:49:13.054Z,9.50
2018-12-08T23:51:41.592Z,9.60
2018-12-08T23:54:09.866Z,9.50
2018-12-08T23:56:38.144Z,9.40
2018-12-08T23:59:06.425Z,9.40
